createdAt,value
2019-05-02T00:01:17.775Z,65.18
2019-05-02T00:03:47.039Z,64.86
2019-05-02T00:06:16.729Z,64.34
2019-05-02T00:08:44.976Z,64.83
2019-05-02T00:11:14.579Z,65.18
2019-05-02T00:13:43.543Z,66.29
2019-05-02T00:16:14.012Z,66.29
2019-05-02T00:18:43.421Z,66.43
2019-05-02T00:21:12.707Z,65.99
2019-05-02T00:23:41.979Z,66.01
2019-05-02T00:26:12.063Z,65.64
2019-05-02T00:28:42.988Z,65.68
2019-05-02T00:31:13.634Z,66.34
2019-05-02T00:33:42.728Z,66.72
2019-05-02T00:36:12.409Z,66.72
2019-05-02T00:38:42.471Z,66.02
2019-05-02T00:41:12.563Z,65.82
2019-05-02T00:43:42.581Z,65.39
2019-05-02T00:46:12.073Z,65.97
2019-05-02T00:48:47.549Z,65.97
2019-05-02T00:51:15.848Z,66.22
2019-05-02T00:53:48.386Z,67.20
2019-05-02T00:56:15.606Z,68.87
2019-05-02T00:58:44.696Z,68.87
2019-05-02T01:01:33.302Z,69.18
2019-05-02T01:04:07.875Z,69.18
2019-05-02T01:06:36.722Z,68.96
2019-05-02T01:09:11.080Z,69.73
2019-05-02T01:11:38.792Z,70.07
2019-05-02T01:14:08.650Z,69.24
2019-05-02T01:16:38.681Z,69.25
2019-05-02T01:19:12.139Z,69.09
2019-05-02T01:21:42.902Z,69.50
2019-05-02T01:24:13.445Z,70.48
2019-05-02T01:27:06.492Z,70.73
2019-05-02T01:29:47.573Z,70.83
2019-05-02T01:32:40.387Z,72.36
2019-05-02T01:35:20.491Z,72.36
2019-05-02T01:38:14.786Z,71.02
2019-05-02T01:40:48.209Z,71.74
2019-05-02T01:43:25.813Z,71.95
2019-05-02T01:45:55.572Z,71.55
2019-05-02T01:48:24.919Z,71.94
2019-05-02T01:50:54.021Z,72.11
2019-05-02T01:53:23.305Z,72.53
2019-05-02T01:55:57.378Z,71.68
2019-05-02T01:58:24.467Z,72.58
2019-05-02T02:00:53.405Z,72.46
2019-05-02T02:03:22.402Z,71.78
2019-05-02T02:05:51.562Z,73.18
2019-05-02T02:08:20.445Z,73.40
2019-05-02T02:10:56.629Z,73.84
2019-05-02T02:13:21.260Z,73.84
2019-05-02T02:15:50.025Z,73.89
2019-05-02T02:18:22.366Z,73.76
2019-05-02T02:21:13.608Z,74.12
2019-05-02T02:23:53.635Z,73.71
2019-05-02T02:26:22.766Z,74.58
2019-05-02T02:28:50.893Z,74.58
2019-05-02T02:31:21.486Z,74.23
2019-05-02T02:33:50.424Z,73.83
2019-05-02T02:36:29.990Z,74.84
2019-05-02T02:38:50.539Z,74.32
2019-05-02T02:41:19.488Z,74.53
2019-05-02T02:44:13.495Z,73.70
2019-05-02T02:46:44.883Z,73.01
2019-05-02T02:49:20.751Z,73.03
2019-05-02T02:51:44.706Z,72.21
2019-05-02T02:54:12.851Z,72.85
2019-05-02T02:56:43.393Z,72.37
2019-05-02T02:59:19.482Z,72.46
2019-05-02T03:01:43.246Z,73.81
2019-05-02T03:04:13.056Z,73.59
2019-05-02T03:06:44.981Z,74.43
2019-05-02T03:09:13.499Z,74.59
2019-05-02T03:12:05.373Z,74.62
2019-05-02T03:14:40.989Z,74.72
2019-05-02T03:17:10.488Z,74.72
2019-05-02T03:19:39.720Z,74.29
2019-05-02T03:22:08.685Z,74.05
2019-05-02T03:24:44.142Z,74.62
2019-05-02T03:27:08.627Z,74.61
2019-05-02T03:29:44.357Z,73.87
2019-05-02T03:32:15.976Z,74.02
2019-05-02T03:34:52.847Z,74.02
2019-05-02T03:37:13.937Z,74.50
2019-05-02T03:39:49.310Z,74.65
2019-05-02T03:42:14.684Z,73.65
2019-05-02T03:44:55.058Z,73.47
2019-05-02T03:47:13.993Z,73.47
2019-05-02T03:49:48.528Z,73.63
2019-05-02T03:52:15.082Z,74.48
2019-05-02T03:54:50.305Z,73.88
2019-05-02T03:57:15.782Z,74.09
2019-05-02T03:59:44.747Z,75.16
2019-05-02T04:02:20.331Z,74.88
2019-05-02T04:04:54.116Z,74.93
2019-05-02T04:07:19.822Z,73.49
2019-05-02T04:09:49.282Z,73.49
2019-05-02T04:12:21.553Z,74.25
2019-05-02T04:14:55.495Z,74.52
2019-05-02T04:17:21.395Z,74.49
2019-05-02T04:19:51.306Z,74.14
2019-05-02T04:22:21.686Z,73.04
2019-05-02T04:24:54.450Z,71.40
2019-05-02T04:27:27.671Z,71.40
2019-05-02T04:29:52.980Z,70.90
2019-05-02T04:32:22.088Z,71.33
2019-05-02T04:34:55.090Z,71.62
2019-05-02T04:37:22.120Z,72.06
2019-05-02T04:39:53.857Z,72.04
2019-05-02T04:42:23.151Z,72.51
2019-05-02T04:45:12.157Z,71.43
2019-05-02T04:47:23.511Z,71.43
2019-05-02T04:49:52.402Z,71.17
2019-05-02T04:52:21.520Z,69.40
2019-05-02T04:54:50.949Z,60.22
2019-05-02T04:57:19.980Z,60.22
2019-05-02T04:59:50.526Z,57.97
2019-05-02T05:02:29.278Z,54.08
2019-05-02T05:04:50.680Z,50.86
2019-05-02T05:07:18.965Z,45.85
2019-05-02T05:09:57.168Z,45.85
2019-05-02T05:12:19.462Z,44.97
2019-05-02T05:14:48.716Z,43.00
2019-05-02T05:17:19.759Z,43.53
2019-05-02T05:19:48.740Z,47.46
2019-05-02T05:22:18.540Z,45.59
2019-05-02T05:24:54.100Z,41.77
2019-05-02T05:27:23.492Z,38.02
2019-05-02T05:29:53.547Z,37.21
2019-05-02T05:32:24.244Z,35.99
2019-05-02T05:34:53.117Z,36.83
2019-05-02T05:37:22.296Z,34.61
2019-05-02T05:39:52.715Z,31.92
2019-05-02T05:42:23.416Z,30.86
2019-05-02T05:44:52.958Z,28.56
2019-05-02T05:47:21.925Z,26.94
2019-05-02T05:49:52.161Z,26.63
2019-05-02T05:52:22.298Z,25.46
2019-05-02T05:54:51.712Z,26.01
2019-05-02T05:57:21.165Z,30.27
2019-05-02T05:59:50.404Z,31.50
2019-05-02T06:02:19.481Z,31.43
2019-05-02T06:04:50.229Z,32.44
2019-05-02T06:07:20.033Z,36.39
2019-05-02T06:09:49.465Z,35.85
2019-05-02T06:12:18.500Z,34.04
2019-05-02T06:14:47.687Z,30.90
2019-05-02T06:17:17.103Z,27.00
2019-05-02T06:19:48.337Z,26.29
2019-05-02T06:22:24.217Z,25.68
2019-05-02T06:24:50.946Z,25.22
2019-05-02T06:27:20.785Z,23.67
2019-05-02T06:29:51.133Z,23.93
2019-05-02T06:32:20.689Z,22.46
2019-05-02T06:34:49.915Z,21.91
2019-05-02T06:37:19.713Z,20.20
2019-05-02T06:39:48.042Z,19.67
2019-05-02T06:42:17.583Z,19.61
2019-05-02T06:44:46.161Z,17.79
2019-05-02T06:47:16.401Z,17.79
2019-05-02T06:49:46.094Z,18.24
2019-05-02T06:52:15.952Z,17.20
2019-05-02T06:54:45.988Z,15.59
2019-05-02T06:57:18.991Z,14.84
2019-05-02T06:59:49.981Z,15.21
2019-05-02T07:02:19.588Z,14.59
2019-05-02T07:04:54.678Z,13.93
2019-05-02T07:07:25.104Z,14.00
2019-05-02T07:09:52.908Z,14.41
2019-05-02T07:12:27.476Z,16.22
2019-05-02T07:15:01.532Z,16.36
2019-05-02T07:17:43.547Z,17.18
2019-05-02T07:20:14.471Z,16.56
2019-05-02T07:22:45.691Z,16.56
2019-05-02T07:25:18.090Z,18.44
2019-05-02T07:27:48.125Z,16.99
2019-05-02T07:30:19.033Z,16.26
2019-05-02T07:32:48.120Z,17.01
2019-05-02T07:35:19.150Z,16.43
2019-05-02T07:37:48.804Z,14.83
2019-05-02T07:40:19.737Z,14.52
2019-05-02T07:42:48.855Z,13.99
2019-05-02T07:45:18.614Z,12.77
2019-05-02T07:47:47.600Z,13.91
2019-05-02T07:50:16.101Z,13.57
2019-05-02T07:52:46.539Z,13.05
2019-05-02T07:55:16.557Z,12.23
2019-05-02T07:57:46.398Z,14.21
2019-05-02T08:00:19.563Z,14.21
2019-05-02T08:02:48.582Z,13.67
2019-05-02T08:05:21.815Z,12.22
2019-05-02T08:07:53.273Z,12.22
2019-05-02T08:10:21.843Z,11.39
2019-05-02T08:12:51.752Z,12.68
2019-05-02T08:15:24.707Z,12.68
2019-05-02T08:17:55.303Z,11.48
2019-05-02T08:20:24.406Z,10.36
2019-05-02T08:22:53.442Z,10.18
2019-05-02T08:25:22.734Z,9.15
2019-05-02T08:27:57.575Z,10.88
2019-05-02T08:30:35.317Z,12.73
2019-05-02T08:33:04.056Z,12.49
2019-05-02T08:35:33.287Z,12.49
2019-05-02T08:38:02.120Z,11.40
2019-05-02T08:40:30.962Z,12.90
2019-05-02T08:43:03.658Z,11.31
2019-05-02T08:45:33.087Z,11.97
2019-05-02T08:48:05.093Z,12.28
2019-05-02T08:50:34.034Z,11.63
2019-05-02T08:53:03.129Z,10.05
2019-05-02T08:55:33.318Z,10.55
2019-05-02T08:58:06.098Z,10.80
2019-05-02T09:00:37.468Z,12.56
2019-05-02T09:03:04.739Z,11.19
2019-05-02T09:05:36.902Z,10.29
2019-05-02T09:08:09.017Z,10.25
2019-05-02T09:10:37.158Z,10.57
2019-05-02T09:13:06.059Z,9.94
2019-05-02T09:15:40.249Z,11.10
2019-05-02T09:20:03.470Z,11.45
2019-05-02T09:22:30.446Z,12.89
2019-05-02T09:25:02.116Z,14.01
2019-05-02T09:27:32.153Z,15.33
2019-05-02T09:30:02.798Z,15.92
2019-05-02T09:32:37.255Z,16.06
2019-05-02T09:35:07.512Z,17.55
2019-05-02T09:37:36.728Z,19.28
2019-05-02T09:40:06.915Z,19.28
2019-05-02T09:42:36.709Z,18.97
2019-05-02T09:45:07.482Z,17.18
2019-05-02T09:47:52.780Z,16.75
2019-05-02T09:50:12.716Z,16.61
2019-05-02T09:52:46.908Z,16.61
2019-05-02T09:55:19.044Z,18.30
2019-05-02T09:57:48.160Z,16.58
2019-05-02T10:00:36.072Z,14.95
2019-05-02T10:03:02.795Z,11.55
2019-05-02T10:05:42.777Z,11.55
2019-05-02T10:10:03.169Z,10.20
2019-05-02T10:12:34.148Z,9.72
2019-05-02T10:15:04.682Z,9.72
2019-05-02T10:17:37.465Z,10.78
2019-05-02T10:20:12.341Z,10.67
2019-05-02T10:22:41.880Z,10.67
2019-05-02T10:25:15.651Z,11.18
2019-05-02T10:27:49.099Z,12.34
2019-05-02T10:30:22.759Z,11.78
2019-05-02T10:32:56.137Z,11.15
2019-05-02T10:35:28.094Z,10.26
2019-05-02T10:37:55.819Z,11.03
2019-05-02T10:40:25.226Z,11.03
2019-05-02T10:42:54.298Z,11.14
2019-05-02T10:45:25.352Z,10.57
2019-05-02T10:47:56.059Z,9.65
2019-05-02T10:50:33.263Z,9.30
2019-05-02T10:53:12.230Z,9.18
2019-05-02T10:55:43.703Z,9.60
2019-05-02T10:58:13.304Z,9.20
2019-05-02T11:00:45.404Z,9.31
2019-05-02T11:03:27.174Z,10.13
2019-05-02T11:06:03.675Z,10.52
2019-05-02T11:08:31.994Z,10.55
2019-05-02T11:11:03.178Z,11.07
2019-05-02T11:14:00.885Z,10.17
2019-05-02T11:16:39.980Z,10.65
2019-05-02T11:19:21.949Z,10.65
2019-05-02T11:21:56.554Z,11.65
2019-05-02T11:24:25.792Z,12.73
2019-05-02T11:26:57.517Z,14.38
2019-05-02T11:29:26.570Z,13.43
2019-05-02T11:31:56.399Z,12.17
2019-05-02T11:34:26.286Z,12.42
2019-05-02T11:36:55.952Z,13.68
2019-05-02T11:39:33.416Z,14.86
2019-05-02T11:42:01.950Z,14.40
2019-05-02T11:44:32.658Z,16.19
2019-05-02T11:47:03.909Z,16.80
2019-05-02T11:49:33.793Z,16.83
2019-05-02T11:52:09.595Z,17.73
2019-05-02T11:54:43.688Z,17.11
2019-05-02T11:57:11.703Z,15.37
2019-05-02T11:59:47.290Z,15.92
2019-05-02T12:02:58.512Z,16.46
2019-05-02T12:05:39.255Z,16.66
2019-05-02T12:08:09.541Z,14.98
2019-05-02T12:10:42.253Z,14.98
2019-05-02T12:13:16.065Z,13.81
2019-05-02T12:15:44.476Z,12.71
2019-05-02T12:18:20.650Z,12.61
2019-05-02T12:20:51.777Z,14.63
2019-05-02T12:23:22.623Z,15.97
2019-05-02T12:25:52.795Z,16.78
2019-05-02T12:28:22.934Z,16.30
2019-05-02T12:30:52.986Z,14.69
2019-05-02T12:33:24.885Z,13.53
2019-05-02T12:35:54.460Z,12.99
2019-05-02T12:38:23.549Z,13.24
2019-05-02T12:40:53.428Z,13.22
2019-05-02T12:43:23.016Z,15.34
2019-05-02T12:45:53.062Z,14.27
2019-05-02T12:48:23.472Z,15.86
2019-05-02T12:50:53.507Z,16.00
2019-05-02T12:53:23.493Z,15.81
2019-05-02T12:55:53.514Z,16.08
2019-05-02T12:58:23.497Z,16.08
2019-05-02T13:00:53.325Z,14.65
2019-05-02T13:03:57.811Z,14.65
2019-05-02T13:06:27.607Z,15.50
2019-05-02T13:08:56.453Z,15.77
2019-05-02T13:11:36.873Z,15.88
2019-05-02T13:14:16.863Z,15.04
2019-05-02T13:16:39.967Z,15.64
2019-05-02T13:19:11.791Z,15.64
2019-05-02T13:22:07.691Z,17.14
2019-05-02T13:24:46.880Z,19.64
2019-05-02T13:27:18.624Z,19.64
2019-05-02T13:32:38.068Z,20.49
2019-05-02T13:35:15.697Z,21.06
2019-05-02T13:37:45.302Z,20.95
2019-05-02T13:40:26.445Z,20.17
2019-05-02T13:42:55.579Z,20.56
2019-05-02T13:45:44.115Z,22.38
2019-05-02T13:48:13.406Z,22.38
2019-05-02T13:50:42.572Z,22.82
2019-05-02T13:53:12.189Z,23.13
2019-05-02T13:55:47.523Z,23.90
2019-05-02T13:58:28.280Z,22.11
2019-05-02T14:00:49.734Z,22.11
2019-05-02T14:03:19.040Z,23.17
2019-05-02T14:05:50.785Z,23.39
2019-05-02T14:08:38.547Z,21.97
2019-05-02T14:11:26.581Z,21.59
2019-05-02T14:13:55.562Z,22.23
2019-05-02T14:16:23.847Z,22.09
2019-05-02T14:18:53.071Z,22.09
2019-05-02T14:21:22.506Z,23.64
2019-05-02T14:23:51.897Z,22.78
2019-05-02T14:26:29.644Z,22.52
2019-05-02T14:28:53.251Z,21.93
2019-05-02T14:31:22.413Z,21.34
2019-05-02T14:34:22.890Z,21.05
2019-05-02T14:36:57.466Z,21.44
2019-05-02T14:39:23.724Z,21.82
2019-05-02T14:41:52.946Z,22.25
2019-05-02T14:44:26.863Z,21.32
2019-05-02T14:46:53.152Z,20.80
2019-05-02T14:49:25.507Z,20.21
2019-05-02T14:51:57.259Z,20.90
2019-05-02T14:54:24.600Z,21.48
2019-05-02T14:57:12.480Z,21.70
2019-05-02T14:59:42.868Z,21.51
2019-05-02T15:02:19.023Z,21.67
2019-05-02T15:04:49.065Z,21.53
2019-05-02T15:07:22.886Z,21.90
2019-05-02T15:09:52.680Z,21.21
2019-05-02T15:12:22.280Z,20.57
2019-05-02T15:14:57.333Z,21.67
2019-05-02T15:17:23.486Z,22.37
2019-05-02T15:19:52.826Z,22.55
2019-05-02T15:22:22.839Z,23.04
2019-05-02T15:24:52.981Z,23.78
2019-05-02T15:27:23.026Z,24.85
2019-05-02T15:29:53.872Z,25.04
2019-05-02T15:32:46.320Z,24.66
2019-05-02T15:35:36.118Z,24.29
2019-05-02T15:38:06.819Z,24.36
2019-05-02T15:40:46.950Z,25.03
2019-05-02T15:43:09.634Z,26.68
2019-05-02T15:45:42.174Z,31.15
2019-05-02T15:48:14.625Z,35.71
2019-05-02T15:50:50.185Z,40.53
2019-05-02T15:53:26.292Z,40.53
2019-05-02T15:55:55.809Z,41.06
2019-05-02T15:58:27.886Z,40.58
2019-05-02T16:01:25.145Z,40.98
2019-05-02T16:05:44.460Z,43.24
2019-05-02T16:08:12.693Z,45.01
2019-05-02T16:10:42.881Z,45.01
2019-05-02T16:13:17.067Z,44.71
2019-05-02T16:15:44.769Z,44.82
2019-05-02T16:18:13.994Z,44.82
2019-05-02T16:21:02.229Z,43.72
2019-05-02T16:23:29.886Z,45.26
2019-05-02T16:25:56.758Z,43.55
2019-05-02T16:28:23.535Z,43.63
2019-05-02T16:30:56.070Z,43.98
2019-05-02T16:33:26.147Z,43.29
2019-05-02T16:35:55.055Z,42.84
2019-05-02T16:38:26.724Z,42.96
2019-05-02T16:40:55.101Z,41.96
2019-05-02T16:43:27.004Z,41.72
2019-05-02T16:45:56.139Z,41.42
2019-05-02T16:48:25.289Z,41.00
2019-05-02T16:50:54.597Z,40.69
2019-05-02T16:53:26.123Z,40.75
2019-05-02T16:55:58.518Z,40.75
2019-05-02T16:58:25.956Z,41.04
2019-05-02T17:00:55.307Z,40.92
2019-05-02T17:03:26.411Z,40.11
2019-05-02T17:05:55.662Z,39.62
2019-05-02T17:08:44.495Z,40.45
2019-05-02T17:11:44.696Z,39.87
2019-05-02T17:14:13.541Z,41.68
2019-05-02T17:16:42.207Z,44.61
2019-05-02T17:19:12.288Z,46.67
2019-05-02T17:21:52.853Z,45.68
2019-05-02T17:24:12.719Z,45.71
2019-05-02T17:26:42.323Z,44.36
2019-05-02T17:29:11.906Z,45.06
2019-05-02T17:31:42.676Z,45.47
2019-05-02T17:34:14.854Z,44.83
2019-05-02T17:36:45.780Z,44.38
2019-05-02T17:39:15.091Z,44.71
2019-05-02T17:41:45.742Z,44.92
2019-05-02T17:44:18.362Z,44.48
2019-05-02T17:46:44.862Z,45.23
2019-05-02T17:49:13.965Z,45.23
2019-05-02T17:52:05.665Z,45.56
2019-05-02T17:54:32.511Z,46.15
2019-05-02T17:57:02.165Z,45.73
2019-05-02T17:59:36.019Z,45.97
2019-05-02T18:02:06.639Z,45.64
2019-05-02T18:04:36.629Z,46.06
2019-05-02T18:07:06.336Z,46.05
2019-05-02T18:09:35.439Z,46.05
2019-05-02T18:12:14.457Z,46.68
2019-05-02T18:14:39.109Z,47.00
2019-05-02T18:17:08.629Z,46.23
2019-05-02T18:19:37.484Z,46.23
2019-05-02T18:22:22.477Z,46.30
2019-05-02T18:24:42.752Z,46.69
2019-05-02T18:27:09.867Z,46.95
2019-05-02T18:29:42.700Z,47.27
2019-05-02T18:32:10.322Z,47.21
2019-05-02T18:34:41.632Z,46.80
2019-05-02T18:37:10.514Z,47.06
2019-05-02T18:39:44.782Z,47.58
2019-05-02T18:42:11.943Z,47.58
2019-05-02T18:44:42.016Z,47.16
2019-05-02T18:47:12.508Z,47.51
2019-05-02T18:49:43.568Z,48.41
2019-05-02T18:52:14.940Z,49.51
2019-05-02T18:54:47.385Z,49.51
2019-05-02T18:57:17.064Z,48.98
2019-05-02T18:59:45.929Z,48.93
2019-05-02T19:02:15.075Z,48.72
2019-05-02T19:04:44.106Z,48.19
2019-05-02T19:07:15.863Z,47.97
2019-05-02T19:09:51.027Z,47.90
2019-05-02T19:12:22.460Z,48.08
2019-05-02T19:17:25.749Z,48.21
2019-05-02T19:19:54.718Z,47.66
2019-05-02T19:22:22.977Z,48.87
2019-05-02T19:24:52.611Z,48.00
2019-05-02T19:27:42.826Z,49.21
2019-05-02T19:33:03.730Z,48.95
2019-05-02T19:35:32.782Z,48.97
2019-05-02T19:38:02.663Z,47.64
2019-05-02T19:40:32.000Z,48.52
2019-05-02T19:43:06.049Z,48.74
2019-05-02T19:45:32.737Z,49.69
2019-05-02T19:48:02.617Z,48.65
2019-05-02T19:50:43.638Z,49.51
2019-05-02T19:53:17.752Z,50.63
2019-05-02T19:55:42.892Z,52.68
2019-05-02T19:58:13.305Z,50.53
2019-05-02T20:00:46.218Z,50.89
2019-05-02T20:03:21.386Z,50.77
2019-05-02T20:05:45.313Z,52.11
2019-05-02T20:08:19.883Z,51.97
2019-05-02T20:10:49.372Z,53.95
2019-05-02T20:13:20.302Z,53.95
2019-05-02T20:15:57.077Z,54.27
2019-05-02T20:18:28.096Z,56.13
2019-05-02T20:21:23.400Z,55.27
2019-05-02T20:23:47.019Z,55.27
2019-05-02T20:26:17.243Z,55.42
2019-05-02T20:28:47.390Z,56.38
2019-05-02T20:31:17.754Z,57.73
2019-05-02T20:33:48.078Z,57.67
2019-05-02T20:36:18.535Z,56.65
2019-05-02T20:38:48.295Z,55.55
2019-05-02T20:41:18.895Z,55.55
2019-05-02T20:43:51.686Z,56.40
2019-05-02T20:46:22.335Z,57.18
2019-05-02T20:48:53.819Z,58.16
2019-05-02T20:51:23.847Z,56.71
2019-05-02T20:53:53.783Z,56.99
2019-05-02T20:56:24.697Z,57.65
2019-05-02T20:58:54.504Z,59.96
2019-05-02T21:01:25.466Z,62.29
2019-05-02T21:03:55.998Z,60.67
2019-05-02T21:06:52.747Z,60.67
2019-05-02T21:09:46.609Z,64.32
2019-05-02T21:12:17.601Z,63.37
2019-05-02T21:14:45.944Z,65.88
2019-05-02T21:17:14.968Z,65.88
2019-05-02T21:19:44.006Z,66.94
2019-05-02T21:22:22.757Z,67.31
2019-05-02T21:24:52.867Z,64.75
2019-05-02T21:27:22.068Z,64.04
2019-05-02T21:29:52.218Z,65.27
2019-05-02T21:32:22.932Z,65.66
2019-05-02T21:34:52.155Z,64.69
2019-05-02T21:37:22.623Z,64.96
2019-05-02T21:39:52.041Z,63.68
2019-05-02T21:42:22.576Z,66.75
2019-05-02T21:44:52.011Z,66.57
2019-05-02T21:47:22.502Z,65.99
2019-05-02T21:50:21.771Z,66.81
2019-05-02T21:53:22.065Z,68.16
2019-05-02T21:56:14.273Z,65.64
2019-05-02T21:59:02.970Z,65.93
2019-05-02T22:01:44.919Z,65.73
2019-05-02T22:04:15.148Z,66.39
2019-05-02T22:06:47.683Z,67.38
2019-05-02T22:09:19.047Z,65.24
2019-05-02T22:11:48.977Z,66.08
2019-05-02T22:14:18.483Z,66.08
2019-05-02T22:16:47.438Z,66.73
2019-05-02T22:19:18.081Z,67.09
2019-05-02T22:21:49.595Z,66.60
2019-05-02T22:24:19.984Z,66.39
2019-05-02T22:26:52.428Z,66.77
2019-05-02T22:29:21.959Z,67.27
2019-05-02T22:31:52.158Z,67.27
2019-05-02T22:34:22.744Z,67.78
2019-05-02T22:36:53.886Z,66.44
2019-05-02T22:39:57.764Z,67.50
2019-05-02T22:42:28.918Z,65.95
2019-05-02T22:44:58.428Z,70.15
2019-05-02T22:47:27.422Z,71.20
2019-05-02T22:49:56.754Z,70.32
2019-05-02T22:52:26.715Z,67.52
2019-05-02T22:54:56.471Z,68.39
2019-05-02T22:57:27.496Z,70.11
2019-05-02T22:59:57.028Z,68.72
2019-05-02T23:02:25.997Z,68.72
2019-05-02T23:04:55.085Z,69.83
2019-05-02T23:07:29.966Z,69.80
2019-05-02T23:09:59.224Z,69.85
2019-05-02T23:12:28.593Z,69.98
2019-05-02T23:14:57.722Z,72.45
2019-05-02T23:17:26.709Z,72.45
2019-05-02T23:19:54.957Z,71.08
2019-05-02T23:22:24.569Z,70.75
2019-05-02T23:25:25.819Z,70.15
2019-05-02T23:27:58.599Z,68.82
2019-05-02T23:30:26.898Z,66.39
2019-05-02T23:32:55.952Z,66.39
2019-05-02T23:35:25.482Z,67.70
2019-05-02T23:37:58.780Z,69.10
2019-05-02T23:40:28.305Z,67.67
2019-05-02T23:42:57.541Z,68.16
2019-05-02T23:45:27.144Z,68.01
2019-05-02T23:47:56.943Z,68.01
2019-05-02T23:50:26.515Z,67.45
2019-05-02T23:52:55.606Z,67.42
2019-05-02T23:55:25.723Z,67.46
2019-05-02T23:57:54.780Z,67.46
